createdAt,value
2018-12-11T00:01:14.528Z,4.63
2018-12-11T00:03:42.919Z,4.33
2018-12-11T00:06:11.387Z,4.07
2018-12-11T00:08:39.810Z,3.93
2018-12-11T00:11:08.271Z,3.67
2018-12-11T00:13:36.677Z,4.03
2018-12-11T00:16:05.087Z,4.00
2018-12-11T00:18:33.485Z,3.90
2018-12-11T00:21:01.911Z,4.30
2018-12-11T00:23:30.338Z,3.90
2018-12-11T00:25:58.755Z,3.73
2018-12-11T00:28:27.159Z,3.70
2018-12-11T00:30:55.634Z,3.50
2018-12-11T00:33:24.088Z,3.30
2018-12-11T00:35:52.692Z,3.30
2018-12-11T00:38:21.110Z,3.20
2018-12-11T00:40:49.494Z,3.40
2018-12-11T00:43:17.900Z,3.27
2018-12-11T00:45:46.308Z,3.50
2018-12-11T00:48:14.735Z,3.50
2018-12-11T00:50:43.125Z,3.23
2018-12-11T00:53:11.520Z,3.40
2018-12-11T00:55:39.930Z,3.53
2018-12-11T00:58:08.340Z,3.50
2018-12-11T01:00:36.721Z,3.50
2018-12-11T01:03:05.143Z,2.90
2018-12-11T01:05:33.665Z,3.50
2018-12-11T01:08:02.092Z,3.30
2018-12-11T01:10:30.498Z,3.40
2018-12-11T01:12:58.934Z,3.47
2018-12-11T01:15:27.332Z,3.60
2018-12-11T01:17:55.720Z,3.50
2018-12-11T01:20:24.197Z,3.33
2018-12-11T01:22:52.605Z,3.00
2018-12-11T01:25:21.005Z,3.07
2018-12-11T01:27:49.406Z,3.40
2018-12-11T01:30:17.801Z,3.20
2018-12-11T01:32:46.209Z,3.57
2018-12-11T01:35:14.622Z,3.70
2018-12-11T01:37:43.035Z,3.47
2018-12-11T01:40:11.452Z,3.43
2018-12-11T01:42:39.849Z,3.23
2018-12-11T01:45:08.377Z,3.50
2018-12-11T01:47:36.796Z,3.37
2018-12-11T01:50:05.332Z,3.63
2018-12-11T01:52:33.737Z,2.80
2018-12-11T01:55:02.180Z,3.10
2018-12-11T01:57:30.571Z,3.60
2018-12-11T01:59:58.975Z,3.40
2018-12-11T02:02:27.373Z,2.97
2018-12-11T02:04:55.767Z,3.40
2018-12-11T02:07:24.169Z,3.57
2018-12-11T02:09:52.573Z,2.80
2018-12-11T02:12:20.965Z,3.20
2018-12-11T02:14:49.370Z,3.20
2018-12-11T02:17:17.785Z,3.23
2018-12-11T02:19:46.188Z,2.90
2018-12-11T02:22:14.588Z,3.13
2018-12-11T02:24:43.003Z,3.80
2018-12-11T02:27:11.417Z,3.17
2018-12-11T02:29:39.839Z,3.80
2018-12-11T02:32:08.236Z,3.80
2018-12-11T02:34:36.623Z,3.47
2018-12-11T02:37:05.013Z,3.73
2018-12-11T02:39:33.398Z,3.57
2018-12-11T02:42:01.826Z,3.87
2018-12-11T02:44:30.214Z,3.47
2018-12-11T02:46:58.633Z,3.80
2018-12-11T02:49:27.037Z,3.63
2018-12-11T02:51:55.452Z,3.73
2018-12-11T02:54:24.104Z,3.50
2018-12-11T02:56:52.511Z,3.90
2018-12-11T02:59:20.942Z,3.90
2018-12-11T03:01:49.342Z,3.70
2018-12-11T03:04:17.728Z,3.80
2018-12-11T03:06:46.159Z,3.83
2018-12-11T03:09:14.533Z,4.03
2018-12-11T03:11:42.947Z,3.87
2018-12-11T03:14:11.375Z,4.27
2018-12-11T03:16:40.508Z,3.40
2018-12-11T03:19:08.973Z,3.60
2018-12-11T03:21:37.376Z,3.40
2018-12-11T03:24:05.784Z,3.87
2018-12-11T03:26:34.214Z,3.73
2018-12-11T03:29:02.589Z,3.23
2018-12-11T03:31:31.013Z,3.50
2018-12-11T03:33:59.411Z,3.60
2018-12-11T03:36:27.808Z,3.43
2018-12-11T03:38:56.222Z,3.93
2018-12-11T03:41:24.607Z,3.60
2018-12-11T03:43:52.990Z,3.90
2018-12-11T03:46:21.531Z,3.50
2018-12-11T03:48:49.937Z,3.30
2018-12-11T03:51:18.343Z,3.33
2018-12-11T03:53:46.745Z,3.47
2018-12-11T03:56:15.149Z,3.73
2018-12-11T03:58:43.542Z,3.10
2018-12-11T04:01:11.964Z,4.00
2018-12-11T04:03:40.360Z,3.73
2018-12-11T04:06:08.876Z,3.53
2018-12-11T04:08:37.324Z,4.03
2018-12-11T04:11:05.710Z,3.67
2018-12-11T04:13:34.108Z,3.40
2018-12-11T04:16:02.522Z,3.53
2018-12-11T04:18:30.962Z,3.20
2018-12-11T04:20:59.365Z,3.73
2018-12-11T04:23:27.760Z,3.87
2018-12-11T04:25:56.163Z,4.00
2018-12-11T04:28:24.551Z,3.43
2018-12-11T04:30:52.959Z,3.57
2018-12-11T04:33:21.396Z,3.90
2018-12-11T04:35:50.065Z,3.63
2018-12-11T04:38:18.484Z,3.90
2018-12-11T04:40:46.874Z,3.70
2018-12-11T04:43:15.324Z,3.60
2018-12-11T04:45:43.719Z,3.77
2018-12-11T04:48:12.098Z,3.40
2018-12-11T04:50:40.507Z,3.57
2018-12-11T04:53:08.908Z,3.80
2018-12-11T04:55:37.326Z,3.70
2018-12-11T04:58:05.735Z,3.87
2018-12-11T05:00:34.151Z,3.67
2018-12-11T05:03:02.563Z,3.77
2018-12-11T05:05:30.945Z,3.43
2018-12-11T05:07:59.360Z,3.73
2018-12-11T05:10:27.757Z,3.20
2018-12-11T05:12:56.169Z,3.20
2018-12-11T05:15:24.568Z,3.43
2018-12-11T05:17:52.945Z,3.83
2018-12-11T05:20:21.369Z,3.27
2018-12-11T05:22:49.745Z,3.70
2018-12-11T05:25:18.159Z,3.50
2018-12-11T05:27:46.555Z,3.83
2018-12-11T05:30:15.028Z,4.03
2018-12-11T05:32:43.473Z,3.67
2018-12-11T05:35:11.853Z,3.87
2018-12-11T05:37:40.238Z,3.93
2018-12-11T05:40:08.711Z,3.80
2018-12-11T05:42:37.099Z,3.90
2018-12-11T05:45:05.893Z,4.50
2018-12-11T05:47:34.289Z,4.23
2018-12-11T05:50:02.698Z,7.43
2018-12-11T05:52:31.111Z,4.47
2018-12-11T05:54:59.526Z,5.33
2018-12-11T05:57:27.938Z,4.37
2018-12-11T05:59:56.329Z,4.00
2018-12-11T06:02:24.730Z,3.80
2018-12-11T06:04:53.145Z,3.70
2018-12-11T06:07:21.567Z,4.30
2018-12-11T06:09:49.960Z,3.93
2018-12-11T06:12:18.447Z,4.03
2018-12-11T06:14:46.864Z,4.00
2018-12-11T06:17:15.335Z,4.40
2018-12-11T06:19:43.776Z,3.97
2018-12-11T06:22:12.411Z,4.10
2018-12-11T06:24:40.852Z,4.90
2018-12-11T06:27:09.240Z,4.90
2018-12-11T06:29:37.628Z,6.50
2018-12-11T06:32:06.049Z,6.00
2018-12-11T06:34:34.449Z,12.23
2018-12-11T06:37:02.855Z,15.67
2018-12-11T06:39:31.267Z,15.17
2018-12-11T06:41:59.682Z,17.33
2018-12-11T06:44:28.259Z,13.50
2018-12-11T06:46:56.667Z,18.43
2018-12-11T06:49:25.091Z,17.30
2018-12-11T06:51:53.517Z,16.57
2018-12-11T06:54:21.923Z,15.63
2018-12-11T06:56:50.333Z,20.53
2018-12-11T06:59:18.749Z,24.37
2018-12-11T07:01:47.180Z,24.03
2018-12-11T07:04:15.588Z,25.67
2018-12-11T07:06:44.040Z,22.67
2018-12-11T07:09:12.419Z,17.43
2018-12-11T07:11:40.820Z,18.57
2018-12-11T07:14:09.318Z,13.70
2018-12-11T07:16:37.920Z,10.93
2018-12-11T07:19:06.313Z,9.30
2018-12-11T07:21:34.717Z,7.07
2018-12-11T07:24:03.111Z,6.33
2018-12-11T07:26:31.537Z,5.53
2018-12-11T07:28:59.951Z,5.07
2018-12-11T07:31:28.342Z,4.47
2018-12-11T07:33:56.768Z,4.57
2018-12-11T07:36:25.246Z,4.73
2018-12-11T07:38:53.734Z,4.60
2018-12-11T07:41:22.145Z,5.17
2018-12-11T07:43:50.573Z,4.93
2018-12-11T07:46:18.980Z,5.17
2018-12-11T07:48:47.388Z,5.03
2018-12-11T07:51:15.779Z,4.90
2018-12-11T07:53:44.161Z,4.33
2018-12-11T07:56:12.576Z,4.53
2018-12-11T07:58:41.005Z,5.50
2018-12-11T08:01:09.392Z,4.93
2018-12-11T08:03:37.815Z,4.77
2018-12-11T08:06:06.252Z,4.93
2018-12-11T08:08:34.886Z,5.20
2018-12-11T08:11:03.283Z,4.73
2018-12-11T08:13:31.656Z,5.17
2018-12-11T08:16:00.082Z,4.90
2018-12-11T08:18:28.479Z,4.90
2018-12-11T08:20:56.896Z,5.50
2018-12-11T08:23:25.484Z,5.17
2018-12-11T08:25:54.053Z,5.37
2018-12-11T08:28:22.456Z,5.07
2018-12-11T08:30:50.850Z,4.80
2018-12-11T08:33:19.258Z,5.27
2018-12-11T08:35:47.722Z,4.87
2018-12-11T08:38:16.158Z,5.47
2018-12-11T08:40:44.558Z,5.23
2018-12-11T08:43:12.952Z,5.70
2018-12-11T08:45:41.366Z,5.53
2018-12-11T08:48:09.760Z,5.13
2018-12-11T08:50:38.195Z,5.10
2018-12-11T08:53:06.613Z,5.53
2018-12-11T08:55:35.007Z,6.13
2018-12-11T08:58:03.421Z,5.57
2018-12-11T09:00:31.829Z,6.70
2018-12-11T09:03:00.275Z,7.13
2018-12-11T09:05:28.686Z,6.50
2018-12-11T09:07:57.085Z,6.43
2018-12-11T09:10:25.512Z,5.90
2018-12-11T09:12:53.902Z,5.73
2018-12-11T09:15:22.296Z,6.13
2018-12-11T09:17:50.724Z,5.50
2018-12-11T09:20:19.124Z,5.37
2018-12-11T09:22:47.521Z,5.50
2018-12-11T09:25:15.955Z,5.70
2018-12-11T09:27:44.358Z,5.23
2018-12-11T09:30:12.758Z,5.27
2018-12-11T09:32:41.173Z,5.80
2018-12-11T09:35:09.575Z,5.50
2018-12-11T09:37:38.001Z,5.80
2018-12-11T09:40:06.541Z,5.67
2018-12-11T09:42:34.935Z,5.47
2018-12-11T09:45:03.775Z,5.70
2018-12-11T09:47:32.174Z,5.57
2018-12-11T09:50:00.588Z,5.93
2018-12-11T09:52:29.028Z,5.80
2018-12-11T09:54:57.458Z,5.53
2018-12-11T09:57:25.850Z,6.53
2018-12-11T09:59:54.266Z,6.67
2018-12-11T10:02:22.699Z,6.63
2018-12-11T10:04:51.105Z,7.20
2018-12-11T10:07:19.491Z,8.20
2018-12-11T10:09:47.896Z,8.47
2018-12-11T10:12:16.296Z,7.70
2018-12-11T10:14:44.715Z,7.93
2018-12-11T10:17:13.145Z,8.73
2018-12-11T10:19:41.530Z,8.80
2018-12-11T10:22:09.961Z,8.27
2018-12-11T10:24:38.378Z,8.73
2018-12-11T10:27:06.800Z,10.40
2018-12-11T10:29:35.194Z,9.80
2018-12-11T10:32:03.581Z,9.67
2018-12-11T10:34:31.995Z,9.10
2018-12-11T10:37:00.396Z,9.23
2018-12-11T10:39:28.825Z,8.63
2018-12-11T10:41:57.227Z,8.07
2018-12-11T10:44:25.629Z,7.30
2018-12-11T10:46:54.049Z,7.03
2018-12-11T10:49:22.470Z,6.30
2018-12-11T10:51:50.858Z,6.73
2018-12-11T10:54:19.258Z,6.77
2018-12-11T10:56:47.654Z,6.23
2018-12-11T10:59:16.064Z,6.67
2018-12-11T11:01:46.289Z,6.03
2018-12-11T11:04:15.025Z,6.60
2018-12-11T11:06:43.449Z,5.63
2018-12-11T11:09:11.830Z,5.90
2018-12-11T11:11:40.209Z,5.97
2018-12-11T11:14:08.614Z,5.67
2018-12-11T11:16:37.005Z,5.50
2018-12-11T11:19:05.426Z,5.83
2018-12-11T11:21:33.829Z,5.90
2018-12-11T11:24:02.217Z,6.07
2018-12-11T11:26:30.625Z,5.63
2018-12-11T11:28:59.028Z,6.50
2018-12-11T11:31:27.421Z,6.20
2018-12-11T11:33:57.085Z,5.87
2018-12-11T11:36:26.237Z,6.43
2018-12-11T11:38:54.628Z,6.50
2018-12-11T11:41:23.018Z,6.10
2018-12-11T11:43:51.401Z,5.33
2018-12-11T11:46:19.823Z,5.57
2018-12-11T11:48:48.223Z,6.07
2018-12-11T11:51:16.617Z,6.20
2018-12-11T11:53:45.011Z,5.70
2018-12-11T11:56:13.461Z,5.70
2018-12-11T11:58:41.912Z,5.87
2018-12-11T12:01:10.318Z,5.77
2018-12-11T12:03:38.725Z,5.60
2018-12-11T12:06:07.170Z,5.43
2018-12-11T12:08:35.565Z,5.63
2018-12-11T12:11:04.060Z,5.30
2018-12-11T12:13:32.478Z,5.90
2018-12-11T12:16:00.861Z,5.47
2018-12-11T12:18:29.271Z,5.40
2018-12-11T12:20:57.658Z,5.60
2018-12-11T12:23:26.065Z,5.57
2018-12-11T12:25:54.471Z,5.23
2018-12-11T12:28:22.861Z,5.97
2018-12-11T12:30:51.834Z,6.90
2018-12-11T12:33:20.228Z,6.90
2018-12-11T12:35:48.700Z,7.07
2018-12-11T12:38:17.085Z,6.90
2018-12-11T12:40:45.476Z,8.37
2018-12-11T12:43:13.881Z,9.60
2018-12-11T12:45:42.275Z,10.40
2018-12-11T12:48:10.673Z,9.27
2018-12-11T12:50:39.073Z,9.43
2018-12-11T12:53:07.472Z,10.23
2018-12-11T12:55:35.861Z,10.57
2018-12-11T12:58:04.266Z,8.97
2018-12-11T13:00:32.723Z,8.10
2018-12-11T13:03:01.109Z,8.57
2018-12-11T13:05:29.553Z,8.03
2018-12-11T13:07:57.935Z,8.47
2018-12-11T13:10:26.330Z,12.03
2018-12-11T13:12:54.901Z,10.33
2018-12-11T13:15:23.297Z,11.63
2018-12-11T13:17:51.705Z,10.10
2018-12-11T13:20:20.102Z,10.83
2018-12-11T13:22:48.514Z,10.37
2018-12-11T13:25:16.923Z,10.20
2018-12-11T13:27:45.314Z,9.57
2018-12-11T13:30:13.711Z,12.20
2018-12-11T13:32:42.130Z,9.67
2018-12-11T13:35:10.526Z,11.60
2018-12-11T13:37:48.441Z,11.83
2018-12-11T13:54:34.199Z,6.87
2018-12-11T13:57:02.605Z,6.70
2018-12-11T13:59:31.015Z,6.07
2018-12-11T14:01:59.437Z,6.50
2018-12-11T14:04:27.816Z,6.10
2018-12-11T14:06:56.212Z,6.13
2018-12-11T14:09:30.174Z,6.40
2018-12-11T14:11:58.628Z,6.40
2018-12-11T14:14:27.042Z,6.07
2018-12-11T14:16:55.467Z,5.60
2018-12-11T14:19:23.853Z,5.20
2018-12-11T14:21:52.305Z,5.90
2018-12-11T14:24:20.694Z,4.83
2018-12-11T14:26:49.144Z,5.60
2018-12-11T14:29:17.858Z,5.13
2018-12-11T14:55:13.519Z,4.77
2018-12-11T14:57:41.591Z,5.50
2018-12-11T15:00:10.147Z,5.10
2018-12-11T15:02:38.474Z,5.73
2018-12-11T15:05:07.199Z,5.40
2018-12-11T15:10:10.956Z,6.23
2018-12-11T15:12:39.448Z,7.20
2018-12-11T15:15:07.893Z,6.87
2018-12-11T15:17:36.297Z,7.47
2018-12-11T15:20:05.804Z,12.63
2018-12-11T15:22:33.891Z,15.20
2018-12-11T15:25:01.964Z,19.63
2018-12-11T15:27:30.022Z,17.97
2018-12-11T15:29:58.114Z,17.23
2018-12-11T15:32:26.208Z,16.73
2018-12-11T15:34:54.305Z,14.83
2018-12-11T15:37:22.709Z,13.07
2018-12-11T15:39:51.113Z,11.83
2018-12-11T15:42:19.187Z,11.37
2018-12-11T15:44:47.591Z,9.33
2018-12-11T15:47:15.988Z,9.30
2018-12-11T15:49:44.054Z,8.70
2018-12-11T15:52:12.144Z,8.57
2018-12-11T15:54:40.215Z,8.77
2018-12-11T15:57:08.296Z,8.77
2018-12-11T15:59:36.369Z,15.27
2018-12-11T16:02:04.431Z,14.33
2018-12-11T16:04:32.514Z,13.53
2018-12-11T16:07:00.601Z,14.53
2018-12-11T16:09:34.280Z,24.93
2018-12-11T16:12:02.361Z,22.83
2018-12-11T16:14:30.422Z,20.67
2018-12-11T16:16:58.507Z,20.53
2018-12-11T16:19:26.589Z,21.53
2018-12-11T16:21:54.662Z,22.60
2018-12-11T16:24:22.746Z,23.30
2018-12-11T16:26:50.819Z,21.60
2018-12-11T16:29:18.925Z,20.33
2018-12-11T16:31:46.996Z,16.63
2018-12-11T16:34:15.083Z,15.70
2018-12-11T16:36:43.144Z,14.60
2018-12-11T16:39:11.236Z,15.27
2018-12-11T16:41:39.303Z,13.83
2018-12-11T16:44:07.364Z,13.87
2018-12-11T16:46:35.512Z,13.73
2018-12-11T16:49:03.576Z,14.23
2018-12-11T16:51:31.645Z,13.93
2018-12-11T16:56:34.483Z,12.63
2018-12-11T16:59:02.908Z,13.07
2018-12-11T17:01:31.297Z,12.07
2018-12-11T17:03:59.387Z,11.73
2018-12-11T17:06:27.447Z,12.00
2018-12-11T17:08:55.519Z,10.97
2018-12-11T17:11:23.619Z,11.10
2018-12-11T17:13:51.680Z,9.30
2018-12-11T17:16:19.765Z,9.40
2018-12-11T17:18:47.831Z,9.10
2018-12-11T17:21:15.918Z,8.60
2018-12-11T17:23:43.974Z,8.80
2018-12-11T17:26:12.065Z,8.87
2018-12-11T17:28:40.131Z,8.13
2018-12-11T17:31:08.207Z,8.10
2018-12-11T17:33:36.297Z,8.63
2018-12-11T17:36:04.396Z,8.60
2018-12-11T17:38:32.451Z,9.20
2018-12-11T17:41:00.542Z,8.70
2018-12-11T17:43:28.603Z,8.90
2018-12-11T17:45:56.689Z,9.43
2018-12-11T17:48:25.049Z,9.10
2018-12-11T17:50:53.299Z,8.57
2018-12-11T17:53:21.869Z,8.63
2018-12-11T17:55:50.279Z,7.57
2018-12-11T17:58:18.361Z,8.27
2018-12-11T18:00:46.457Z,8.70
2018-12-11T18:03:14.509Z,9.30
2018-12-11T18:05:42.574Z,8.90
2018-12-11T18:08:10.644Z,8.57
2018-12-11T18:10:38.736Z,9.07
2018-12-11T18:13:06.807Z,9.17
2018-12-11T18:15:34.879Z,8.20
2018-12-11T18:18:03.032Z,8.10
2018-12-11T18:20:31.099Z,8.90
2018-12-11T18:22:59.175Z,9.53
2018-12-11T18:25:27.236Z,9.33
2018-12-11T18:27:55.408Z,9.10
2018-12-11T18:30:23.685Z,9.07
2018-12-11T18:32:51.736Z,9.37
2018-12-11T18:35:20.220Z,10.30
2018-12-11T18:37:48.294Z,10.63
2018-12-11T18:40:16.360Z,10.87
2018-12-11T18:42:44.776Z,12.27
2018-12-11T18:45:13.284Z,15.83
2018-12-11T18:47:41.430Z,18.73
2018-12-11T18:50:09.735Z,26.83
2018-12-11T18:52:37.822Z,27.80
2018-12-11T18:55:05.990Z,23.43
2018-12-11T18:57:34.104Z,25.67
2018-12-11T19:00:02.215Z,49.60
2018-12-11T19:02:30.291Z,43.17
2018-12-11T19:04:58.353Z,38.40
2018-12-11T19:07:26.454Z,37.60
2018-12-11T19:09:55.044Z,36.07
2018-12-11T19:12:23.364Z,28.77
2018-12-11T19:14:51.760Z,26.67
2018-12-11T19:17:19.862Z,23.80
2018-12-11T19:19:48.247Z,19.73
2018-12-11T19:22:16.337Z,17.83
2018-12-11T19:24:44.466Z,16.00
2018-12-11T19:27:12.555Z,12.43
2018-12-11T19:29:40.632Z,12.67
2018-12-11T19:32:08.720Z,11.53
2018-12-11T19:34:36.794Z,10.87
2018-12-11T19:37:04.889Z,10.57
2018-12-11T19:39:32.940Z,10.97
2018-12-11T19:42:01.013Z,11.33
2018-12-11T19:44:29.099Z,10.93
2018-12-11T19:46:57.182Z,10.43
2018-12-11T19:49:25.261Z,11.50
2018-12-11T19:51:53.331Z,10.93
2018-12-11T19:54:21.406Z,10.87
2018-12-11T19:56:49.477Z,11.10
2018-12-11T19:59:17.564Z,10.80
2018-12-11T20:01:45.977Z,10.67
2018-12-11T20:04:14.186Z,9.77
2018-12-11T20:06:42.247Z,10.60
2018-12-11T20:09:10.305Z,10.63
2018-12-11T20:11:38.390Z,11.03
2018-12-11T20:14:06.468Z,11.03
2018-12-11T20:16:34.557Z,11.73
2018-12-11T20:19:02.995Z,12.20
2018-12-11T20:21:31.077Z,11.70
2018-12-11T20:24:04.817Z,12.67
2018-12-11T20:26:29.576Z,11.60
2018-12-11T20:28:57.649Z,10.57
2018-12-11T20:31:25.767Z,11.23
2018-12-11T20:33:53.829Z,11.00
2018-12-11T20:36:21.898Z,11.50
2018-12-11T20:38:50.000Z,10.13
2018-12-11T20:41:18.093Z,11.03
2018-12-11T20:43:46.155Z,11.27
2018-12-11T20:46:14.221Z,11.30
2018-12-11T20:48:42.390Z,10.87
2018-12-11T20:51:10.488Z,11.07
2018-12-11T20:53:38.558Z,11.80
2018-12-11T20:56:06.634Z,10.97
2018-12-11T20:58:34.704Z,10.70
2018-12-11T21:01:02.772Z,11.40
2018-12-11T21:03:30.846Z,11.10
2018-12-11T21:05:58.897Z,11.47
2018-12-11T21:08:27.466Z,11.33
2018-12-11T21:10:55.870Z,10.17
2018-12-11T21:13:23.935Z,10.77
2018-12-11T21:15:52.046Z,10.60
2018-12-11T21:18:20.110Z,9.90
2018-12-11T21:20:48.180Z,10.60
2018-12-11T21:23:16.294Z,10.20
2018-12-11T21:25:44.365Z,9.73
2018-12-11T21:28:12.442Z,10.10
2018-12-11T21:30:40.528Z,10.13
2018-12-11T21:33:08.611Z,11.00
2018-12-11T21:35:36.702Z,9.43
2018-12-11T21:38:04.759Z,10.10
2018-12-11T21:40:32.822Z,10.17
2018-12-11T21:43:00.920Z,9.83
2018-12-11T21:45:29.315Z,9.03
2018-12-11T21:47:57.398Z,10.63
2018-12-11T21:50:25.732Z,10.50
2018-12-11T21:52:54.158Z,10.40
2018-12-11T21:55:22.605Z,11.50
2018-12-11T21:57:50.700Z,10.77
2018-12-11T22:00:18.776Z,10.10
2018-12-11T22:02:46.857Z,10.57
2018-12-11T22:05:14.946Z,9.87
2018-12-11T22:07:43.016Z,10.00
2018-12-11T22:10:11.098Z,9.77
2018-12-11T22:12:39.168Z,10.33
2018-12-11T22:15:07.304Z,9.47
2018-12-11T22:17:35.389Z,11.37
2018-12-11T22:20:04.210Z,11.10
2018-12-11T22:22:32.317Z,11.23
2018-12-11T22:25:00.719Z,11.10
2018-12-11T22:27:29.096Z,10.10
2018-12-11T22:29:57.198Z,11.00
2018-12-11T22:32:25.274Z,11.37
2018-12-11T22:34:53.329Z,10.23
2018-12-11T22:37:21.431Z,11.50
2018-12-11T22:39:49.502Z,11.30
2018-12-11T22:42:17.598Z,11.00
2018-12-11T22:44:45.660Z,11.13
2018-12-11T22:47:13.716Z,11.40
2018-12-11T22:49:41.816Z,11.47
2018-12-11T22:52:09.890Z,11.27
2018-12-11T22:54:38.224Z,11.67
2018-12-11T22:57:06.642Z,11.90
2018-12-11T22:59:34.742Z,11.23
2018-12-11T23:02:02.817Z,13.40
2018-12-11T23:04:30.889Z,12.83
2018-12-11T23:06:58.983Z,11.87
2018-12-11T23:09:27.131Z,12.87
2018-12-11T23:11:55.542Z,12.87
2018-12-11T23:14:23.978Z,11.83
2018-12-11T23:16:52.046Z,12.43
2018-12-11T23:19:20.100Z,12.10
2018-12-11T23:21:48.213Z,12.70
2018-12-11T23:24:16.293Z,13.13
2018-12-11T23:26:44.383Z,12.70
2018-12-11T23:29:12.463Z,12.40
2018-12-11T23:31:40.526Z,12.27
2018-12-11T23:34:08.618Z,11.63
2018-12-11T23:36:36.690Z,11.53
2018-12-11T23:39:06.035Z,12.27
2018-12-11T23:41:34.140Z,12.00
2018-12-11T23:44:02.535Z,12.03
2018-12-11T23:46:30.649Z,12.63
2018-12-11T23:48:58.737Z,13.17
2018-12-11T23:51:26.811Z,12.23
2018-12-11T23:53:54.944Z,12.93
2018-12-11T23:56:23.052Z,12.47
2018-12-11T23:58:51.118Z,12.77
